Time;durP1;ratioP1;P1;durP2;ratioP2;P2;SDS_P1;SDS_P2;PMS_P1;PMS_P2;Temp;Humidity;BMP_temperature;BMP_pressure;BME280_temperature;BME280_humidity;BME280_pressure;Samples;Min_cycle;Max_cycle;Signal;HPM_P1;HPM_P2
2023/10/06 00:03:00;;;;;;;;;20.00;18.25;;;;;15.33;100.00;102447.50;5079640;27;45376;-74
2023/10/06 00:05:25;;;;;;;;;26.25;21.00;;;;;15.31;100.00;102449.25;5080256;28;46777;-75
2023/10/06 00:07:51;;;;;;;;;20.00;17.25;;;;;15.31;100.00;102451.91;5080260;27;46163;-75
2023/10/06 00:10:21;;;;;;;;;22.75;19.00;;;;;15.30;100.00;102447.47;5077942;27;45380;-74
2023/10/06 00:12:59;;;;;;;;;22.50;19.25;;;;;15.30;100.00;102451.03;5078295;27;45403;-75
2023/10/06 00:15:40;;;;;;;;;20.75;17.00;;;;;15.28;100.00;102452.75;5075049;27;45613;-74
2023/10/06 00:18:16;;;;;;;;;21.25;18.00;;;;;15.26;100.00;102454.50;5070805;27;45472;-74
2023/10/06 00:20:48;;;;;;;;;21.25;17.00;;;;;15.25;100.00;102449.16;5078516;27;45313;-74
2023/10/06 00:23:14;;;;;;;;;27.50;19.50;;;;;15.24;100.00;102456.25;5071772;28;45614;-74
2023/10/06 00:25:43;;;;;;;;;25.50;20.50;;;;;15.21;100.00;102464.16;5077180;27;45775;-73
2023/10/06 00:28:17;;;;;;;;;24.00;21.00;;;;;15.22;100.00;102465.03;5076931;27;45448;-73
2023/10/06 00:30:46;;;;;;;;;22.25;18.25;;;;;15.21;100.00;102466.81;5079626;27;45566;-75
2023/10/06 00:33:12;;;;;;;;;20.25;19.25;;;;;15.17;100.00;102468.50;5078737;27;45566;-76
2023/10/06 00:35:38;;;;;;;;;22.50;19.00;;;;;15.16;100.00;102460.50;5078158;27;46185;-77
2023/10/06 00:38:13;;;;;;;;;23.25;19.75;;;;;15.14;100.00;102459.59;5078443;27;45571;-74
2023/10/06 00:40:50;;;;;;;;;22.25;18.50;;;;;15.14;100.00;102465.81;5092004;27;45474;-76
2023/10/06 00:43:28;;;;;;;;;19.00;17.75;;;;;15.15;100.00;102456.06;5073100;28;45363;-76
2023/10/06 00:45:53;;;;;;;;;22.75;20.50;;;;;15.12;100.00;102454.22;5080411;27;45586;-74
2023/10/06 00:48:19;;;;;;;;;14.50;12.00;;;;;15.08;100.00;102447.09;5077343;28;45316;-75
2023/10/06 00:50:44;;;;;;;;;24.25;19.75;;;;;15.08;100.00;102456.84;5078070;27;45413;-74
2023/10/06 00:53:13;;;;;;;;;28.50;21.75;;;;;15.07;100.00;102463.88;5076286;27;45390;-74
2023/10/06 00:55:39;;;;;;;;;23.75;22.00;;;;;15.05;100.00;102456.75;5077065;27;46782;-75
2023/10/06 00:58:09;;;;;;;;;21.50;19.50;;;;;15.03;100.00;102454.09;5076232;28;45395;-74
2023/10/06 01:00:37;;;;;;;;;23.75;18.25;;;;;14.99;100.00;102457.53;5077440;27;45406;-75
2023/10/06 01:03:09;;;;;;;;;17.25;16.25;;;;;15.00;100.00;102458.44;5077361;27;45523;-75
2023/10/06 01:05:35;;;;;;;;;24.25;16.75;;;;;14.98;100.00;102457.53;5077161;27;46779;-75
2023/10/06 01:08:05;;;;;;;;;20.50;16.50;;;;;14.95;100.00;102450.38;5076398;27;45442;-74
2023/10/06 01:10:34;;;;;;;;;18.00;17.50;;;;;14.92;100.00;102447.66;5088756;27;45415;-74
2023/10/06 01:13:11;;;;;;;;;23.50;19.50;;;;;14.94;100.00;102449.47;5078116;28;45489;-76
2023/10/06 01:15:44;;;;;;;;;18.75;15.50;;;;;14.86;100.00;102447.53;5073317;27;45797;-76
2023/10/06 01:18:19;;;;;;;;;20.25;17.00;;;;;14.84;100.00;102449.28;5072967;27;45721;-74
2023/10/06 01:20:44;;;;;;;;;18.25;16.25;;;;;14.82;100.00;102445.69;5076379;28;45568;-76
2023/10/06 01:23:21;;;;;;;;;21.00;17.00;;;;;14.80;100.00;102445.66;5076016;27;45552;-75
2023/10/06 01:25:59;;;;;;;;;26.25;19.75;;;;;14.80;100.00;102428.78;5073188;28;46002;-75
2023/10/06 01:28:26;;;;;;;;;12.75;9.75;;;;;14.76;100.00;102433.19;5077550;27;45552;-76
2023/10/06 01:30:52;;;;;;;;;27.50;19.00;;;;;14.72;100.00;102441.06;5075857;27;45174;-76
2023/10/06 01:33:17;;;;;;;;;21.75;16.25;;;;;14.73;100.00;102437.53;5078094;27;45475;-75
2023/10/06 01:35:43;;;;;;;;;19.50;14.75;;;;;14.71;100.00;102431.31;5075929;27;46302;-77
2023/10/06 01:38:22;;;;;;;;;18.50;13.75;;;;;14.66;100.00;102432.09;5078629;27;45545;-76
2023/10/06 01:40:52;;;;;;;;;21.25;18.00;;;;;14.65;100.00;102438.28;5075490;28;45539;-77
2023/10/06 01:43:38;;;;;;;;;24.25;17.75;;;;;14.61;100.00;102428.44;5077065;28;45221;-76
2023/10/06 01:46:12;;;;;;;;;21.00;17.50;;;;;14.59;100.00;102434.59;5076284;27;45775;-76
2023/10/06 01:48:37;;;;;;;;;21.25;17.75;;;;;14.57;100.00;102431.00;5073427;28;45554;-75
2023/10/06 01:51:08;;;;;;;;;16.00;15.00;;;;;14.53;100.00;102431.81;5072797;27;55462;-76
2023/10/06 01:53:33;;;;;;;;;21.50;20.00;;;;;14.49;100.00;102416.66;5076658;27;45600;-75
2023/10/06 01:56:01;;;;;;;;;15.50;14.00;;;;;14.48;100.00;102420.19;5074156;28;47544;-75
2023/10/06 01:58:27;;;;;;;;;21.50;18.00;;;;;14.44;100.00;102421.88;5076468;27;45387;-76
2023/10/06 02:00:52;;;;;;;;;21.00;19.00;;;;;14.38;100.00;102420.00;5074365;27;45432;-76
2023/10/06 02:03:20;;;;;;;;;22.75;18.75;;;;;14.35;100.00;102422.56;5075264;27;45559;-75
2023/10/06 02:05:46;;;;;;;;;27.50;22.00;;;;;14.33;100.00;102420.75;5070312;28;47866;-75
2023/10/06 02:08:21;;;;;;;;;25.00;19.25;;;;;14.30;100.00;102424.22;5074584;28;56205;-76
2023/10/06 02:10:47;;;;;;;;;20.50;18.00;;;;;14.27;100.00;102433.88;5077081;27;45343;-75
2023/10/06 02:13:17;;;;;;;;;22.00;18.50;;;;;14.24;100.00;102424.09;5076151;27;45337;-76
2023/10/06 02:15:43;;;;;;;;;17.00;15.25;;;;;14.21;100.00;102424.03;5076281;28;48035;-76
2023/10/06 02:18:12;;;;;;;;;22.25;18.75;;;;;14.21;100.00;102423.13;5074438;28;57570;-75
2023/10/06 02:20:39;;;;;;;;;18.00;16.25;;;;;14.20;100.00;102426.66;5076323;28;45391;-75
2023/10/06 02:23:05;;;;;;;;;15.00;14.00;;;;;14.16;100.00;102428.34;5076012;27;45409;-75
2023/10/06 02:25:31;;;;;;;;;22.25;17.75;;;;;14.21;100.00;102425.78;5075616;27;45354;-75
2023/10/06 02:27:59;;;;;;;;;18.75;14.50;;;;;14.19;100.00;102422.22;5076679;27;45329;-75
2023/10/06 02:30:33;;;;;;;;;21.00;18.00;;;;;14.19;100.00;102420.44;5079680;27;45486;-75
2023/10/06 02:32:59;;;;;;;;;15.50;15.50;;;;;14.13;100.00;102418.56;5076657;27;45296;-75
2023/10/06 02:35:25;;;;;;;;;17.25;13.75;;;;;14.12;100.00;102416.78;5074509;27;47520;-76
2023/10/06 02:37:50;;;;;;;;;14.67;13.00;;;;;14.13;100.00;102418.56;5076413;27;45435;-76
2023/10/06 02:40:16;;;;;;;;;17.00;16.75;;;;;14.10;100.00;102409.63;5077669;27;45576;-75
2023/10/06 02:42:46;;;;;;;;;13.25;12.00;;;;;14.11;100.00;102420.31;5076394;27;45488;-75
2023/10/06 02:45:16;;;;;;;;;14.50;12.50;;;;;14.11;100.00;102408.75;5075840;27;46098;-76
2023/10/06 02:47:42;;;;;;;;;19.00;13.25;;;;;14.12;100.00;102414.13;5076450;28;45506;-76
2023/10/06 02:50:17;;;;;;;;;17.00;14.00;;;;;14.08;100.00;102408.69;5076579;27;45536;-75
2023/10/06 02:52:45;;;;;;;;;16.25;11.00;;;;;14.05;100.00;102401.53;5075607;27;45505;-75
2023/10/06 02:55:11;;;;;;;;;16.50;14.75;;;;;14.03;100.00;102405.03;5074962;27;46182;-76
2023/10/06 02:57:38;;;;;;;;;14.50;11.75;;;;;14.00;100.00;102413.81;5075074;27;45256;-76
2023/10/06 03:02:56;;;;;;;;;19.50;13.50;;;;;13.95;100.00;102407.50;5075038;28;45565;-75
2023/10/06 03:05:30;;;;;;;;;12.75;11.00;;;;;13.99;100.00;102416.44;5075212;28;46055;-75
2023/10/06 03:07:56;;;;;;;;;15.33;13.00;;;;;13.95;100.00;102418.13;5075493;27;45304;-76
2023/10/06 03:10:26;;;;;;;;;17.00;14.00;;;;;13.92;100.00;102415.44;5076597;27;45312;-75
2023/10/06 03:12:52;;;;;;;;;15.33;12.00;;;;;13.91;100.00;102413.66;5074979;27;45488;-75
2023/10/06 03:15:36;;;;;;;;;16.25;13.00;;;;;13.88;100.00;102419.75;5075242;27;45613;-76
2023/10/06 03:18:05;;;;;;;;;15.25;14.25;;;;;13.79;100.00;102416.88;5070830;28;45366;-75
2023/10/06 03:20:49;;;;;;;;;16.00;14.00;;;;;13.76;100.00;102423.91;5071398;28;45447;-75
2023/10/06 03:23:26;;;;;;;;;22.25;15.00;;;;;13.76;100.00;102423.91;5075445;28;45216;-75
2023/10/06 03:25:56;;;;;;;;;12.50;12.00;;;;;13.77;100.00;102418.63;5075849;27;46864;-74
2023/10/06 03:28:32;;;;;;;;;17.00;14.75;;;;;13.75;100.00;102415.03;5077792;27;45332;-76
2023/10/06 03:31:02;;;;;;;;;17.00;12.75;;;;;13.73;100.00;102414.09;5069414;28;45636;-75
2023/10/06 03:33:29;;;;;;;;;16.25;13.50;;;;;13.72;100.00;102417.63;5074947;27;45455;-75
2023/10/06 03:35:57;;;;;;;;;17.50;13.00;;;;;13.69;100.00;102419.28;5075256;27;47531;-75
2023/10/06 03:46:24;;;;;;;;;15.00;13.00;;;;;13.66;100.00;102409.50;5061260;28;47172;-75
2023/10/06 03:48:50;;;;;;;;;14.50;13.00;;;;;13.63;100.00;102409.44;5075723;27;45438;-75
2023/10/06 03:51:19;;;;;;;;;15.25;15.25;;;;;13.62;100.00;102416.50;5073761;27;45430;-75
2023/10/06 03:53:48;;;;;;;;;16.50;15.50;;;;;13.60;100.00;102418.22;5077706;27;45647;-76
2023/10/06 03:56:13;;;;;;;;;13.50;13.25;;;;;13.57;100.00;102415.47;5075382;27;46299;-76
2023/10/06 03:58:41;;;;;;;;;17.00;13.00;;;;;13.56;100.00;102419.00;5074968;27;45604;-75
2023/10/06 04:01:11;;;;;;;;;18.00;13.00;;;;;13.55;100.00;102421.63;5074518;28;45343;-75
2023/10/06 04:03:36;;;;;;;;;15.50;15.25;;;;;13.51;100.00;102423.31;5073879;28;45542;-75
2023/10/06 04:06:05;;;;;;;;;13.00;12.75;;;;;13.52;100.00;102418.88;5074405;28;45910;-75
2023/10/06 04:08:30;;;;;;;;;18.50;14.25;;;;;13.48;100.00;102425.00;5073396;27;45607;-75
2023/10/06 04:10:58;;;;;;;;;12.75;12.75;;;;;13.48;100.00;102420.59;5075016;27;52730;-75
2023/10/06 04:13:24;;;;;;;;;21.00;15.75;;;;;13.47;100.00;102423.19;5075766;27;45593;-75
2023/10/06 04:15:52;;;;;;;;;16.00;14.25;;;;;13.45;100.00;102416.97;5075139;28;45865;-75
2023/10/06 04:18:22;;;;;;;;;18.00;13.25;;;;;13.46;100.00;102418.75;5073770;28;45577;-75
2023/10/06 04:20:49;;;;;;;;;14.75;14.25;;;;;13.47;100.00;102432.03;5074996;27;45461;-75
2023/10/06 04:23:18;;;;;;;;;14.75;13.00;;;;;13.48;100.00;102428.56;5074580;27;45684;-76
2023/10/06 04:25:45;;;;;;;;;15.00;12.75;;;;;13.46;100.00;102426.72;5074048;27;46827;-75
2023/10/06 04:28:15;;;;;;;;;16.25;13.00;;;;;13.41;100.00;102425.69;5075472;27;45481;-74
2023/10/06 04:30:44;;;;;;;;;14.25;12.50;;;;;13.36;100.00;102431.78;5078010;27;45331;-75
2023/10/06 04:33:11;;;;;;;;;16.00;13.00;;;;;13.33;100.00;102423.75;5071906;27;45579;-74
2023/10/06 04:35:42;;;;;;;;;17.00;14.25;;;;;13.32;100.00;102418.44;5073956;28;46023;-74
2023/10/06 04:38:10;;;;;;;;;16.00;12.25;;;;;13.34;100.00;102416.69;5075264;27;45520;-75
2023/10/06 04:40:36;;;;;;;;;15.25;13.50;;;;;13.33;100.00;102422.88;5072797;28;45462;-74
2023/10/06 04:43:03;;;;;;;;;17.50;13.75;;;;;13.29;100.00;102419.22;5073626;27;45530;-75
2023/10/06 04:45:31;;;;;;;;;13.25;12.00;;;;;13.28;100.00;102419.19;5068611;27;45990;-75
2023/10/06 04:47:57;;;;;;;;;17.50;14.50;;;;;13.23;100.00;102423.50;5076881;28;45870;-75
2023/10/06 04:50:23;;;;;;;;;16.75;13.50;;;;;13.24;100.00;102419.97;5078372;27;45249;-75
2023/10/06 04:52:48;;;;;;;;;16.00;12.50;;;;;13.22;100.00;102419.03;5079602;27;45815;-75
2023/10/06 04:55:14;;;;;;;;;14.75;14.75;;;;;13.22;100.00;102419.03;5076932;27;67332;-75
2023/10/06 04:57:41;;;;;;;;;13.25;10.50;;;;;13.18;100.00;102418.03;5076036;28;45522;-75
2023/10/06 05:00:22;;;;;;;;;15.00;15.00;;;;;13.16;100.00;102416.22;5078095;27;45452;-76
2023/10/06 05:02:50;;;;;;;;;20.25;16.50;;;;;13.19;100.00;102424.22;5074900;28;45494;-75
2023/10/06 05:05:20;;;;;;;;;15.75;13.25;;;;;13.16;100.00;102427.72;5077541;27;46876;-75
2023/10/06 05:07:50;;;;;;;;;18.00;13.25;;;;;13.16;100.00;102419.75;5092044;27;45423;-75
2023/10/06 05:10:21;;;;;;;;;14.50;12.00;;;;;13.15;100.00;102425.88;5075549;27;47043;-75
2023/10/06 05:12:46;;;;;;;;;14.50;13.50;;;;;13.16;100.00;102421.50;5077272;27;45855;-75
2023/10/06 05:15:23;;;;;;;;;16.75;15.25;;;;;13.12;100.00;102415.22;5075828;28;46775;-75
2023/10/06 05:17:48;;;;;;;;;12.75;12.25;;;;;13.11;100.00;102413.44;5074881;28;45494;-75
2023/10/06 05:20:20;;;;;;;;;16.50;16.50;;;;;13.14;100.00;102417.91;5074946;28;45589;-75
2023/10/06 05:22:48;;;;;;;;;16.25;16.25;;;;;13.11;100.00;102418.72;5075992;27;45540;-75
2023/10/06 05:25:13;;;;;;;;;18.00;14.75;;;;;13.11;100.00;102418.72;5086957;27;48411;-75
2023/10/06 05:27:39;;;;;;;;;17.75;12.25;;;;;13.09;100.00;102412.47;5071815;28;46343;-75
2023/10/06 05:30:06;;;;;;;;;15.50;12.75;;;;;13.08;100.00;102408.03;5080526;27;45528;-74
2023/10/06 05:32:32;;;;;;;;;15.75;15.75;;;;;13.07;100.00;102414.19;5091673;27;45645;-75
2023/10/06 05:34:57;;;;;;;;;14.50;14.50;;;;;13.07;100.00;102406.25;5076462;27;45876;-75
2023/10/06 05:37:23;;;;;;;;;15.75;15.00;;;;;13.08;100.00;102410.69;5076443;27;45305;-75
2023/10/06 05:39:49;;;;;;;;;17.50;14.50;;;;;13.06;100.00;102412.41;5069104;27;46953;-76
2023/10/06 05:42:14;;;;;;;;;17.25;17.00;;;;;13.09;100.00;102415.13;5076376;27;45555;-74
2023/10/06 05:44:40;;;;;;;;;17.50;14.75;;;;;13.04;100.00;102412.34;5072690;27;45680;-72
2023/10/06 05:47:08;;;;;;;;;15.50;13.75;;;;;13.04;100.00;102409.69;5074039;27;45510;-73
2023/10/06 05:49:38;;;;;;;;;25.75;15.75;;;;;13.02;100.00;102411.44;5073934;27;45505;-73
2023/10/06 05:52:10;;;;;;;;;22.25;16.25;;;;;13.00;100.00;102410.50;5075435;27;45497;-72
2023/10/06 05:54:36;;;;;;;;;15.00;15.00;;;;;12.98;100.00;102408.66;5087316;27;46329;-75
2023/10/06 05:57:01;;;;;;;;;17.00;14.00;;;;;12.96;100.00;102415.69;5074506;27;45694;-72
2023/10/06 05:59:28;;;;;;;;;18.25;12.25;;;;;12.97;100.00;102410.41;5075106;27;45393;-74
2023/10/06 06:01:56;;;;;;;;;17.75;15.00;;;;;12.95;100.00;102416.53;5076715;27;45346;-74
2023/10/06 06:04:27;;;;;;;;;18.50;14.75;;;;;12.98;100.00;102414.84;5076955;27;46944;-76
2023/10/06 06:06:56;;;;;;;;;15.75;15.75;;;;;12.97;100.00;102417.47;5076292;27;46328;-74
2023/10/06 06:09:25;;;;;;;;;18.25;16.00;;;;;12.96;100.00;102423.63;5060629;27;45595;-75
2023/10/06 06:11:51;;;;;;;;;19.00;16.25;;;;;12.94;100.00;102420.91;5074521;27;45525;-77
2023/10/06 06:14:20;;;;;;;;;17.00;14.25;;;;;12.95;100.00;102422.75;5067388;28;47575;-76
2023/10/06 06:16:46;;;;;;;;;15.50;14.75;;;;;12.95;100.00;102428.03;5076894;28;45530;-75
2023/10/06 06:19:11;;;;;;;;;21.75;15.50;;;;;12.98;100.00;102435.16;5074706;27;45508;-75
2023/10/06 06:21:38;;;;;;;;;20.50;14.50;;;;;13.01;100.00;102435.25;5073804;27;45451;-75
2023/10/06 06:24:06;;;;;;;;;19.00;17.25;;;;;12.96;100.00;102432.47;5063426;27;45696;-75
2023/10/06 06:26:31;;;;;;;;;23.75;16.75;;;;;12.88;100.00;102449.91;5071117;27;45719;-76
2023/10/06 06:29:02;;;;;;;;;18.50;17.00;;;;;12.84;100.00;102448.97;5067288;27;45329;-76
2023/10/06 06:31:28;;;;;;;;;17.75;15.75;;;;;12.88;100.00;102455.22;5071975;27;45550;-76
2023/10/06 06:33:56;;;;;;;;;22.25;17.25;;;;;12.92;100.00;102457.09;5068983;27;45685;-75
2023/10/06 06:36:22;;;;;;;;;16.00;15.50;;;;;12.95;100.00;102454.56;5072785;27;45563;-77
2023/10/06 06:38:48;;;;;;;;;19.00;18.00;;;;;12.99;100.00;102460.81;5075011;27;45513;-77
2023/10/06 06:41:14;;;;;;;;;21.25;19.25;;;;;13.04;100.00;102467.13;5072423;27;45394;-76
2023/10/06 06:43:44;;;;;;;;;21.00;18.25;;;;;13.01;100.00;102456.47;5085204;27;63833;-75
2023/10/06 06:46:17;;;;;;;;;18.75;18.75;;;;;12.97;100.00;102466.09;5072543;27;45470;-76
2023/10/06 06:48:44;;;;;;;;;28.75;20.75;;;;;12.96;100.00;102459.00;5070650;27;46530;-75
2023/10/06 06:51:11;;;;;;;;;23.50;19.25;;;;;12.96;100.00;102453.69;5068390;27;46652;-76
2023/10/06 06:53:39;;;;;;;;;19.25;15.00;;;;;13.02;100.00;102461.81;5066095;27;46428;-77
2023/10/06 06:56:05;;;;;;;;;22.50;17.75;;;;;13.08;100.00;102461.06;5072486;27;45574;-77
2023/10/06 06:58:32;;;;;;;;;22.00;20.25;;;;;13.17;100.00;102449.81;5071455;27;45905;-77
2023/10/06 07:00:58;;;;;;;;;21.50;16.00;;;;;13.24;100.00;102452.69;5082440;27;45400;-77
2023/10/06 07:03:24;;;;;;;;;19.00;17.00;;;;;13.32;100.00;102453.81;5074137;27;46695;-75
2023/10/06 07:05:50;;;;;;;;;20.25;19.00;;;;;13.40;100.00;102453.97;5070744;27;45563;-74
2023/10/06 07:08:16;;;;;;;;;18.25;17.25;;;;;13.47;100.00;102450.63;5071203;27;45662;-75
2023/10/06 07:10:52;;;;;;;;;22.50;20.00;;;;;13.55;100.00;102451.72;5072670;27;45522;-74
2023/10/06 07:13:17;;;;;;;;;22.50;17.75;;;;;13.59;100.00;102458.00;5072367;27;46626;-74
2023/10/06 07:15:42;;;;;;;;;31.25;21.75;;;;;13.66;100.00;102451.09;5072973;27;46356;-74
2023/10/06 07:18:10;;;;;;;;;25.00;19.50;;;;;13.72;100.00;102461.84;5070977;27;48387;-74
2023/10/06 07:20:36;;;;;;;;;21.75;20.25;;;;;13.74;100.00;102468.09;5072695;27;45563;-74
2023/10/06 07:23:01;;;;;;;;;27.75;21.25;;;;;13.81;100.00;102462.09;5070209;27;46601;-73
2023/10/06 07:25:27;;;;;;;;;27.25;21.00;;;;;13.85;100.00;102459.53;5090425;27;45454;-73
2023/10/06 07:27:55;;;;;;;;;25.50;20.25;;;;;13.92;100.00;102455.25;5072321;27;45450;-74
2023/10/06 07:30:25;;;;;;;;;24.50;21.00;;;;;13.99;100.00;102469.56;5073808;27;45638;-74
2023/10/06 07:32:51;;;;;;;;;25.75;22.00;;;;;13.97;100.00;102460.69;5073531;27;46263;-73
2023/10/06 07:35:18;;;;;;;;;24.00;22.00;;;;;14.01;100.00;102459.88;5068722;27;45539;-73
2023/10/06 07:37:45;;;;;;;;;27.00;22.00;;;;;14.05;100.00;102459.97;5062562;28;45520;-74
2023/10/06 07:40:15;;;;;;;;;29.50;20.00;;;;;14.11;100.00;102462.81;5067251;27;45373;-74
2023/10/06 07:42:51;;;;;;;;;26.50;24.25;;;;;14.20;100.00;102477.13;5080296;27;45725;-73
2023/10/06 07:45:17;;;;;;;;;21.75;20.75;;;;;14.24;100.00;102479.91;5071004;28;46080;-74
2023/10/06 07:47:43;;;;;;;;;25.25;23.50;;;;;14.31;100.00;102483.56;5069937;28;45549;-74
2023/10/06 07:50:12;;;;;;;;;27.25;23.00;;;;;14.36;100.00;102479.25;5072053;27;45545;-73
2023/10/06 07:52:39;;;;;;;;;37.25;24.50;;;;;14.39;100.00;102474.94;5070905;27;45808;-76
2023/10/06 07:55:05;;;;;;;;;29.50;24.00;;;;;14.45;100.00;102474.16;5083290;27;45616;-75
2023/10/06 07:57:32;;;;;;;;;25.00;22.75;;;;;14.50;100.00;102475.19;5071973;27;45468;-72
2023/10/06 07:59:59;;;;;;;;;31.00;26.75;;;;;14.56;100.00;102482.38;5073895;27;45451;-72
2023/10/06 08:02:26;;;;;;;;;26.75;21.75;;;;;14.58;100.00;102481.53;5068446;27;46785;-73
2023/10/06 08:04:52;;;;;;;;;31.00;23.00;;;;;14.66;100.00;102495.91;5070482;28;45920;-74
2023/10/06 08:07:20;;;;;;;;;28.50;24.75;;;;;14.70;100.00;102491.56;5071423;27;45499;-72
2023/10/06 08:09:46;;;;;;;;;31.25;25.50;;;;;14.78;100.00;102499.69;5068456;28;47467;-73
2023/10/06 08:12:13;;;;;;;;;25.25;25.25;;;;;14.86;100.00;102501.63;5071799;27;46306;-72
2023/10/06 08:14:39;;;;;;;;;27.75;23.00;;;;;14.98;100.00;102495.66;5064799;27;45689;-72
2023/10/06 08:17:05;;;;;;;;;36.50;24.75;;;;;15.07;100.00;102501.13;5066268;27;47238;-73
2023/10/06 08:19:31;;;;;;;;;27.75;25.00;;;;;15.18;100.00;102504.03;5070679;28;45682;-72
2023/10/06 08:21:56;;;;;;;;;27.75;23.50;;;;;15.22;100.00;102496.97;5071367;27;45857;-72
2023/10/06 08:24:22;;;;;;;;;27.00;25.50;;;;;15.28;100.00;102508.63;5072429;27;45644;-73
2023/10/06 08:26:48;;;;;;;;;28.00;26.50;;;;;15.36;100.00;102509.69;5076731;27;45459;-72
2023/10/06 08:29:14;;;;;;;;;27.50;26.25;;;;;15.40;100.00;102498.22;5075179;27;45565;-72
2023/10/06 08:31:40;;;;;;;;;29.75;25.00;;;;;15.46;100.00;102497.44;5071539;27;46087;-72
2023/10/06 08:34:05;;;;;;;;;28.25;24.50;;;;;15.57;100.00;102495.84;5070837;27;45882;-73
2023/10/06 08:36:31;;;;;;;;;27.25;22.50;;;;;15.68;100.00;102496.06;5073048;27;45489;-72
2023/10/06 08:38:58;;;;;;;;;28.75;26.50;;;;;15.74;100.00;102498.81;5060029;27;45621;-73
2023/10/06 08:41:33;;;;;;;;;27.75;22.25;;;;;15.84;100.00;102492.78;5070468;27;46143;-74
2023/10/06 08:44:01;;;;;;;;;29.00;25.25;;;;;15.94;100.00;102492.06;5070032;27;45561;-73
2023/10/06 08:46:28;;;;;;;;;26.50;17.00;;;;;16.06;100.00;102493.09;5074354;27;45554;-72
2023/10/06 08:48:55;;;;;;;;;22.25;20.25;;;;;16.14;100.00;102497.69;5076663;27;46794;-72
2023/10/06 08:51:22;;;;;;;;;23.25;21.25;;;;;16.25;100.00;102497.84;5062909;27;48557;-72
2023/10/06 08:53:49;;;;;;;;;20.25;17.50;;;;;16.37;100.00;102491.78;5070207;27;45518;-74
2023/10/06 08:56:15;;;;;;;;;25.00;21.25;;;;;16.48;100.00;102485.72;5068967;27;45467;-73
2023/10/06 08:58:41;;;;;;;;;26.00;23.00;;;;;16.56;100.00;102490.25;5075317;27;45488;-73
2023/10/06 09:01:07;;;;;;;;;20.75;19.25;;;;;16.63;100.00;102485.03;5088583;27;46733;-73
2023/10/06 09:03:33;;;;;;;;;22.00;19.00;;;;;16.72;100.00;102489.59;5071087;27;46240;-73
2023/10/06 09:05:58;;;;;;;;;24.25;22.00;;;;;16.81;100.00;102487.03;5070936;27;45603;-73
2023/10/06 09:08:24;;;;;;;;;31.00;23.00;;;;;16.91;100.00;102488.03;5073300;27;47429;-72
2023/10/06 09:10:51;;;;;;;;;25.00;22.00;;;;;16.99;100.00;102489.00;5071658;27;47241;-74
2023/10/06 09:13:20;;;;;;;;;18.67;16.00;;;;;17.06;100.00;102473.97;5069090;27;45659;-75
2023/10/06 09:16:16;;;;;;;;;23.33;17.33;;;;;17.17;100.00;102472.31;5090925;27;45569;-73
2023/10/06 09:18:42;;;;;;;;;24.33;14.67;;;;;17.24;100.00;102468.81;5058792;27;45750;-73
2023/10/06 09:21:19;;;;;;;;;18.33;13.00;;;;;17.34;100.00;102464.47;5075723;27;45526;-73
2023/10/06 09:23:45;;;;;;;;;16.00;12.33;;;;;17.39;100.00;102468.97;5072657;27;45480;-74
2023/10/06 09:26:26;;;;;;;;;15.67;12.33;;;;;17.42;100.00;102469.00;5075448;27;47080;-75
2023/10/06 09:28:55;;;;;;;;;12.67;11.00;;;;;17.51;100.00;102477.06;5073575;27;45539;-76
2023/10/06 09:31:51;;;;;;;;;16.33;14.33;;;;;17.59;100.00;102462.91;5073174;27;48704;-75
2023/10/06 09:34:27;;;;;;;;;14.67;12.33;;;;;17.69;100.00;102456.75;5073106;27;45237;-74
2023/10/06 09:36:53;;;;;;;;;11.67;11.33;;;;;17.77;100.00;102455.06;5074428;27;45697;-75
2023/10/06 09:39:38;;;;;;;;;16.33;12.00;;;;;17.83;100.00;102455.09;5073532;27;45529;-75
2023/10/06 09:42:06;;;;;;;;;15.00;13.00;;;;;17.91;100.00;102455.16;5073961;27;46148;-74
2023/10/06 09:44:31;;;;;;;;;16.33;13.67;;;;;17.99;100.00;102456.09;5055844;28;45525;-73
2023/10/06 09:47:00;;;;;;;;;16.67;11.67;;;;;18.11;100.00;102449.91;5089636;27;45966;-74
2023/10/06 09:49:27;;;;;;;;;13.33;11.33;;;;;18.18;100.00;102447.31;5074804;27;45625;-76
2023/10/06 09:51:52;;;;;;;;;16.67;14.00;;;;;18.29;100.00;102453.59;5077084;27;47675;-73
2023/10/06 09:54:20;;;;;;;;;13.33;11.33;;;;;18.40;100.00;102447.41;5090017;27;45519;-74
2023/10/06 09:56:46;;;;;;;;;13.00;11.33;;;;;18.51;100.00;102451.91;5056084;28;45424;-73
2023/10/06 09:59:13;;;;;;;;;18.00;12.00;;;;;18.58;100.00;102452.81;5075289;27;45355;-74
2023/10/06 10:01:42;;;;;;;;;18.67;11.67;;;;;18.69;100.00;102448.44;5073093;27;46369;-75
2023/10/06 10:04:11;;;;;;;;;12.00;12.00;;;;;18.76;100.00;102444.03;5074181;27;45490;-75
2023/10/06 10:06:43;;;;;;;;;16.33;11.00;;;;;18.85;100.00;102436.00;5085571;27;45599;-75
2023/10/06 10:09:15;;;;;;;;;8.00;7.33;;;;;18.90;100.00;102430.66;5073313;27;47241;-76
2023/10/06 10:11:44;;;;;;;;;17.67;15.67;;;;;18.98;100.00;102431.56;5083765;27;48151;-76
2023/10/06 10:14:40;;;;;;;;;12.33;12.00;;;;;19.03;100.00;102436.03;5071508;27;45636;-75
2023/10/06 10:17:33;;;;;;;;;14.33;13.00;;;;;19.11;100.00;102431.56;5071065;27;45537;-75
2023/10/06 10:19:59;;;;;;;;;14.00;13.00;;;;;19.20;100.00;102443.22;5074099;27;45500;-76
2023/10/06 10:22:25;;;;;;;;;12.67;12.33;;;;;19.23;100.00;102440.50;5070513;27;46809;-73
2023/10/06 10:24:51;;;;;;;;;21.67;13.00;;;;;19.28;100.00;102439.66;5072828;27;45570;-72
2023/10/06 10:27:18;;;;;;;;;15.00;14.00;;;;;19.32;100.00;102438.75;5073157;27;45326;-71
2023/10/06 10:29:44;;;;;;;;;16.67;13.00;;;;;19.40;100.00;102435.19;5066933;27;45640;-73
2023/10/06 10:32:12;;;;;;;;;16.00;13.33;;;;;19.50;100.00;102429.81;5069552;27;46277;-71
2023/10/06 10:35:15;;;;;;;;;17.33;13.00;;;;;19.54;100.00;102426.22;5063599;27;45592;-75
2023/10/06 10:37:59;;;;;;;;;12.00;11.00;;;;;19.66;100.00;102425.38;5054543;28;45533;-73
2023/10/06 10:40:26;;;;;;;;;17.67;13.33;;;;;19.76;100.00;102418.19;5054192;27;45359;-73
2023/10/06 10:43:12;;;;;;;;;14.33;12.33;;;;;19.86;100.00;102410.13;5072605;27;46278;-73
2023/10/06 10:45:43;;;;;;;;;14.67;12.00;;;;;19.91;100.00;102409.25;5072978;27;45466;-72
2023/10/06 10:48:17;;;;;;;;;14.67;10.33;;;;;19.95;100.00;102393.16;5071613;27;45449;-72
2023/10/06 10:51:05;;;;;;;;;12.33;10.00;;;;;20.05;100.00;102392.22;5071629;27;45444;-71
2023/10/06 10:53:33;;;;;;;;;14.67;11.67;;;;;20.12;100.00;102395.75;5081497;27;46883;-76
2023/10/06 10:56:01;;;;;;;;;12.67;11.00;;;;;20.19;100.00;102385.91;5072525;27;45539;-74
2023/10/06 10:58:44;;;;;;;;;15.00;13.67;;;;;20.24;100.00;102382.34;5072512;27;45393;-73
2023/10/06 11:01:31;;;;;;;;;11.33;11.33;;;;;20.31;100.00;102384.06;5089516;27;45545;-73
2023/10/06 11:04:12;;;;;;;;;14.00;12.00;;;;;20.41;100.00;102374.19;5068508;27;46626;-74
2023/10/06 11:06:45;;;;;;;;;10.00;8.67;;;;;20.45;100.00;102377.72;5065321;22;45543;-72
2023/10/06 11:09:26;;;;;;;;;16.00;12.67;;;;;20.49;100.00;102366.13;5044535;28;45498;-72
2023/10/06 11:11:56;;;;;;;;;14.33;10.00;;;;;20.56;100.00;102375.91;5032364;28;45594;-75
2023/10/06 11:14:25;;;;;;;;;13.67;9.00;;;;;20.66;100.00;102373.16;5053456;28;46559;-75
2023/10/06 11:16:52;;;;;;;;;11.00;8.67;;;;;20.69;100.00;102371.38;5068558;27;45483;-73
2023/10/06 11:19:18;;;;;;;;;9.33;9.00;;;;;20.77;100.00;102377.56;5052230;28;45523;-74
2023/10/06 11:21:47;;;;;;;;;13.00;10.33;;;;;20.83;100.00;102366.81;5051784;28;45572;-73
2023/10/06 11:24:33;;;;;;;;;11.67;10.00;;;;;20.90;100.00;102364.06;5052789;28;45956;-73